createdAt,value
2023-02-19T00:00:21.913Z,77.29
2023-02-19T00:06:09.161Z,77.34
2023-02-19T00:11:33.257Z,77.50
2023-02-19T00:16:54.802Z,77.90
2023-02-19T00:22:16.616Z,77.64
2023-02-19T00:27:38.349Z,78.00
2023-02-19T00:33:00.387Z,78.25
2023-02-19T00:38:22.408Z,78.09
2023-02-19T00:43:45.041Z,77.40
2023-02-19T00:49:08.708Z,77.73
2023-02-19T00:54:31.711Z,77.75
2023-02-19T00:59:53.641Z,78.01
2023-02-19T01:05:15.566Z,78.20
2023-02-19T01:10:37.487Z,78.76
2023-02-19T01:16:07.557Z,79.20
2023-02-19T01:21:30.586Z,79.42
2023-02-19T01:26:52.915Z,79.30
2023-02-19T01:32:14.810Z,79.44
2023-02-19T01:37:37.379Z,79.52
2023-02-19T01:43:00.007Z,79.78
2023-02-19T01:48:27.890Z,79.91
2023-02-19T01:53:55.104Z,80.03
2023-02-19T01:59:17.357Z,80.03
2023-02-19T02:04:39.470Z,80.09
2023-02-19T02:10:21.756Z,80.24
2023-02-19T02:16:23.077Z,79.82
2023-02-19T02:22:14.497Z,80.00
2023-02-19T02:27:55.274Z,80.28
2023-02-19T02:33:32.703Z,80.25
2023-02-19T02:38:58.717Z,80.25
2023-02-19T02:44:20.824Z,80.44
2023-02-19T02:50:02.605Z,80.42
2023-02-19T02:55:24.925Z,80.00
2023-02-19T03:01:09.244Z,80.07
2023-02-19T03:06:34.408Z,79.99
2023-02-19T03:12:18.308Z,79.94
2023-02-19T03:18:01.744Z,79.86
2023-02-19T03:23:46.720Z,79.80
2023-02-19T03:29:24.928Z,79.81
2023-02-19T03:34:57.307Z,79.96
2023-02-19T03:40:19.217Z,80.22
2023-02-19T03:46:01.737Z,80.02
2023-02-19T03:51:46.511Z,79.99
2023-02-19T03:57:24.127Z,79.67
2023-02-19T04:03:06.501Z,79.49
2023-02-19T04:08:29.535Z,79.63
2023-02-19T04:14:01.612Z,80.03
2023-02-19T04:19:25.648Z,80.05
2023-02-19T04:24:52.992Z,79.94
2023-02-19T04:30:15.438Z,79.99
2023-02-19T04:35:37.216Z,80.41
2023-02-19T04:40:58.968Z,80.50
2023-02-19T04:46:21.032Z,80.67
2023-02-19T04:51:43.042Z,80.69
2023-02-19T04:57:04.958Z,80.29
2023-02-19T05:02:26.991Z,80.94
2023-02-19T05:07:49.325Z,80.61
2023-02-19T05:13:11.289Z,80.86
2023-02-19T05:18:34.897Z,80.94
2023-02-19T05:23:57.019Z,81.23
2023-02-19T05:29:18.860Z,80.70
2023-02-19T05:34:41.070Z,80.95
2023-02-19T05:40:03.181Z,80.83
2023-02-19T05:45:27.554Z,80.77
2023-02-19T05:50:49.667Z,80.55
2023-02-19T05:56:27.060Z,80.80
2023-02-19T06:01:50.409Z,80.81
2023-02-19T06:07:12.116Z,80.59
2023-02-19T06:12:34.043Z,80.41
2023-02-19T06:17:55.877Z,80.84
2023-02-19T06:23:18.004Z,80.83
2023-02-19T06:28:40.846Z,80.70
2023-02-19T06:34:06.205Z,80.86
2023-02-19T06:39:28.311Z,80.68
2023-02-19T06:44:50.051Z,80.95
2023-02-19T06:50:12.178Z,80.75
2023-02-19T06:55:33.713Z,80.88
2023-02-19T07:00:56.027Z,80.93
2023-02-19T07:06:17.630Z,81.18
2023-02-19T07:11:40.291Z,81.09
2023-02-19T07:17:03.518Z,80.92
2023-02-19T07:22:24.985Z,81.29
2023-02-19T07:27:46.690Z,80.95
2023-02-19T07:33:10.474Z,81.41
2023-02-19T07:38:32.741Z,81.67
2023-02-19T07:43:54.672Z,81.94
2023-02-19T07:49:16.806Z,82.07
2023-02-19T07:54:38.834Z,81.72
2023-02-19T08:00:01.175Z,81.84
2023-02-19T08:05:23.096Z,81.43
2023-02-19T08:11:03.293Z,81.25
2023-02-19T08:16:40.676Z,80.96
2023-02-19T08:22:04.391Z,80.78
2023-02-19T08:27:26.501Z,81.00
2023-02-19T08:32:48.665Z,80.75
2023-02-19T08:38:11.902Z,81.04
2023-02-19T08:43:34.636Z,81.03
2023-02-19T08:48:57.663Z,80.96
2023-02-19T08:54:19.392Z,80.85
2023-02-19T08:59:41.218Z,80.86
2023-02-19T09:05:03.995Z,80.84
2023-02-19T09:10:26.110Z,80.63
2023-02-19T09:15:48.626Z,80.54
2023-02-19T09:21:10.889Z,80.64
2023-02-19T09:26:32.874Z,79.66
2023-02-19T09:31:58.472Z,79.22
2023-02-19T09:37:20.347Z,78.88
2023-02-19T09:42:43.388Z,78.29
2023-02-19T09:48:06.514Z,78.14
2023-02-19T09:53:34.846Z,78.24
2023-02-19T09:58:58.621Z,78.04
2023-02-19T10:04:20.326Z,78.03
2023-02-19T10:09:42.227Z,77.73
2023-02-19T10:15:23.351Z,76.75
2023-02-19T10:20:47.063Z,76.65
2023-02-19T10:26:09.239Z,77.12
2023-02-19T10:31:32.872Z,77.49
2023-02-19T10:36:54.585Z,77.47
2023-02-19T10:42:24.121Z,76.72
2023-02-19T10:47:47.173Z,76.46
2023-02-19T10:53:22.200Z,76.44
2023-02-19T10:58:45.151Z,75.45
2023-02-19T11:04:18.145Z,75.37
2023-02-19T11:09:42.852Z,75.61
2023-02-19T11:15:32.374Z,75.67
2023-02-19T11:20:55.334Z,75.09
2023-02-19T11:26:26.108Z,75.66
2023-02-19T11:31:47.732Z,75.53
2023-02-19T11:37:21.159Z,74.98
2023-02-19T11:42:50.949Z,74.37
2023-02-19T11:48:29.602Z,74.55
2023-02-19T11:54:03.625Z,74.63
2023-02-19T11:59:57.680Z,74.43
2023-02-19T12:05:42.341Z,74.78
2023-02-19T12:11:24.704Z,74.53
2023-02-19T12:17:30.678Z,74.80
2023-02-19T12:23:13.765Z,74.74
2023-02-19T12:28:54.760Z,74.95
2023-02-19T12:34:19.705Z,75.12
2023-02-19T12:39:48.146Z,74.74
2023-02-19T12:45:28.281Z,73.74
2023-02-19T12:51:01.111Z,73.44
2023-02-19T12:56:28.410Z,72.31
2023-02-19T13:02:21.439Z,71.16
2023-02-19T13:07:57.502Z,70.72
2023-02-19T13:13:26.812Z,71.07
2023-02-19T13:18:52.301Z,70.28
2023-02-19T13:24:17.823Z,70.75
2023-02-19T13:30:17.700Z,70.56
2023-02-19T13:36:13.834Z,70.61
2023-02-19T13:41:41.074Z,68.61
2023-02-19T13:47:06.842Z,67.25
2023-02-19T13:52:28.252Z,68.28
2023-02-19T13:57:50.481Z,67.92
2023-02-19T14:03:39.735Z,67.48
2023-02-19T14:09:01.548Z,67.10
2023-02-19T14:14:23.076Z,66.83
2023-02-19T14:20:02.365Z,66.71
2023-02-19T14:25:27.113Z,66.59
2023-02-19T14:30:56.260Z,66.37
2023-02-19T14:36:32.756Z,67.11
2023-02-19T14:42:00.368Z,66.95
2023-02-19T14:47:27.917Z,65.98
2023-02-19T14:52:51.854Z,64.77
2023-02-19T14:58:17.899Z,64.25
2023-02-19T15:03:39.625Z,64.93
2023-02-19T15:09:07.313Z,64.72
2023-02-19T15:14:30.902Z,64.54
2023-02-19T15:19:53.318Z,64.23
2023-02-19T15:25:20.793Z,64.69
2023-02-19T15:30:42.522Z,64.88
2023-02-19T15:36:08.969Z,65.02
2023-02-19T15:41:34.075Z,65.07
2023-02-19T15:46:57.051Z,64.55
2023-02-19T15:52:27.669Z,64.33
2023-02-19T15:58:30.788Z,64.00
2023-02-19T16:03:54.413Z,63.85
2023-02-19T16:09:20.958Z,63.59
2023-02-19T16:14:42.498Z,63.25
2023-02-19T16:20:04.921Z,63.08
2023-02-19T16:25:41.996Z,62.80
2023-02-19T16:31:09.465Z,62.72
2023-02-19T16:36:41.822Z,62.68
2023-02-19T16:42:12.848Z,62.68
2023-02-19T16:47:38.089Z,62.92
2023-02-19T16:53:02.311Z,63.06
2023-02-19T16:58:23.786Z,63.36
2023-02-19T17:03:47.536Z,63.54
2023-02-19T17:09:09.654Z,63.63
2023-02-19T17:14:31.583Z,63.51
2023-02-19T17:19:53.606Z,63.64
2023-02-19T17:25:15.841Z,63.95
2023-02-19T17:30:40.009Z,64.07
2023-02-19T17:36:02.626Z,64.04
2023-02-19T17:41:24.331Z,64.22
2023-02-19T17:46:50.066Z,64.18
2023-02-19T17:52:17.764Z,64.50
2023-02-19T17:57:39.856Z,64.46
2023-02-19T18:03:01.705Z,64.13
2023-02-19T18:08:23.755Z,63.66
2023-02-19T18:13:46.245Z,63.07
2023-02-19T18:19:08.274Z,62.67
2023-02-19T18:24:30.169Z,62.67
2023-02-19T18:29:54.003Z,62.73
2023-02-19T18:35:17.491Z,62.72
2023-02-19T18:40:39.201Z,62.83
2023-02-19T18:46:01.117Z,62.95
2023-02-19T18:51:23.864Z,62.74
2023-02-19T18:56:48.310Z,62.97
2023-02-19T19:02:11.048Z,62.95
2023-02-19T19:07:32.569Z,63.12
2023-02-19T19:12:54.695Z,63.32
2023-02-19T19:18:16.535Z,63.29
2023-02-19T19:23:38.556Z,63.69
2023-02-19T19:29:01.290Z,63.99
2023-02-19T19:34:22.804Z,63.93
2023-02-19T19:39:45.196Z,64.57
2023-02-19T19:45:08.513Z,64.70
2023-02-19T19:50:30.514Z,65.00
2023-02-19T19:55:52.440Z,64.89
2023-02-19T20:01:15.205Z,65.41
2023-02-19T20:06:37.160Z,65.26
2023-02-19T20:11:58.930Z,65.46
2023-02-19T20:17:20.956Z,65.59
2023-02-19T20:22:42.750Z,65.95
2023-02-19T20:28:04.714Z,65.92
2023-02-19T20:33:26.946Z,65.93
2023-02-19T20:38:49.811Z,65.92
2023-02-19T20:44:12.107Z,66.07
2023-02-19T20:49:34.636Z,65.74
2023-02-19T20:54:57.237Z,65.93
2023-02-19T21:00:19.908Z,65.69
2023-02-19T21:05:43.152Z,66.12
2023-02-19T21:11:05.366Z,66.02
2023-02-19T21:16:32.837Z,66.16
2023-02-19T21:21:54.242Z,66.22
2023-02-19T21:27:19.594Z,66.23
2023-02-19T21:32:41.614Z,66.08
2023-02-19T21:38:04.550Z,66.28
2023-02-19T21:43:28.884Z,66.64
2023-02-19T21:48:51.919Z,66.61
2023-02-19T21:54:24.952Z,66.69
2023-02-19T21:59:48.720Z,67.00
2023-02-19T22:05:10.550Z,67.14
2023-02-19T22:10:32.680Z,67.01
2023-02-19T22:15:54.806Z,67.46
2023-02-19T22:21:17.640Z,67.37
2023-02-19T22:26:39.574Z,67.50
2023-02-19T22:32:01.354Z,67.54
2023-02-19T22:37:23.627Z,67.72
2023-02-19T22:42:45.680Z,67.72
2023-02-19T22:48:07.361Z,68.00
2023-02-19T22:53:29.050Z,68.21
2023-02-19T22:58:51.332Z,68.43
2023-02-19T23:04:13.589Z,68.70
2023-02-19T23:09:35.407Z,68.71
2023-02-19T23:14:57.262Z,68.43
2023-02-19T23:20:19.073Z,68.63
2023-02-19T23:25:41.006Z,68.69
2023-02-19T23:31:02.959Z,68.53
2023-02-19T23:36:25.068Z,68.75
2023-02-19T23:41:52.200Z,68.67
2023-02-19T23:47:14.530Z,68.68
2023-02-19T23:52:36.289Z,69.07
2023-02-19T23:57:58.186Z,68.67
